sensor_id;sensor_type;location;lat;lon;timestamp;temperature;humidity
80212;DHT22;70434;37.956;23.722;2023-08-31T13:23:48;34.10;20.30
80212;DHT22;70434;37.956;23.722;2023-08-31T13:26:14;34.20;20.70
80212;DHT22;70434;37.956;23.722;2023-08-31T13:28:40;34.20;20.20
80212;DHT22;70434;37.956;23.722;2023-08-31T13:31:06;34.20;20.10
80212;DHT22;70434;37.956;23.722;2023-08-31T13:33:32;34.30;20.10
80212;DHT22;70434;37.956;23.722;2023-08-31T13:35:58;34.30;20.10
80212;DHT22;70434;37.956;23.722;2023-08-31T13:38:24;34.20;20.00
80212;DHT22;70434;37.956;23.722;2023-08-31T13:40:56;34.30;20.10
80212;DHT22;70434;37.956;23.722;2023-08-31T13:43:23;34.20;20.30
80212;DHT22;70434;37.956;23.722;2023-08-31T13:45:49;34.20;21.00
80212;DHT22;70434;37.956;23.722;2023-08-31T13:48:15;34.20;22.60
80212;DHT22;70434;37.956;23.722;2023-08-31T13:50:40;34.30;23.40
80212;DHT22;70434;37.956;23.722;2023-08-31T13:53:06;34.40;23.40
80212;DHT22;70434;37.956;23.722;2023-08-31T13:55:32;34.50;23.40
80212;DHT22;70434;37.956;23.722;2023-08-31T13:58:06;34.40;23.60
80212;DHT22;70434;37.956;23.722;2023-08-31T14:00:33;34.50;24.20
80212;DHT22;70434;37.956;23.722;2023-08-31T14:02:59;34.50;23.30
80212;DHT22;70434;37.956;23.722;2023-08-31T14:05:29;34.50;25.10
80212;DHT22;70434;37.956;23.722;2023-08-31T14:07:55;34.50;23.80
80212;DHT22;70434;37.956;23.722;2023-08-31T14:10:21;34.70;20.80
80212;DHT22;70434;37.956;23.722;2023-08-31T14:12:47;34.70;20.40
80212;DHT22;70434;37.956;23.722;2023-08-31T14:15:13;34.60;20.50
80212;DHT22;70434;37.956;23.722;2023-08-31T14:17:38;34.60;20.60
80212;DHT22;70434;37.956;23.722;2023-08-31T14:20:05;34.70;20.30
80212;DHT22;70434;37.956;23.722;2023-08-31T14:22:34;34.60;21.50
80212;DHT22;70434;37.956;23.722;2023-08-31T14:25:00;34.70;27.00
80212;DHT22;70434;37.956;23.722;2023-08-31T14:27:26;34.70;29.00
80212;DHT22;70434;37.956;23.722;2023-08-31T14:29:53;34.70;30.10
80212;DHT22;70434;37.956;23.722;2023-08-31T14:32:18;34.70;31.70
80212;DHT22;70434;37.956;23.722;2023-08-31T14:34:44;34.70;32.30
80212;DHT22;70434;37.956;23.722;2023-08-31T14:37:10;34.80;32.20
80212;DHT22;70434;37.956;23.722;2023-08-31T14:39:35;34.90;32.00
80212;DHT22;70434;37.956;23.722;2023-08-31T14:42:01;35.00;32.40
80212;DHT22;70434;37.956;23.722;2023-08-31T14:44:27;35.10;32.90
80212;DHT22;70434;37.956;23.722;2023-08-31T14:46:53;35.10;31.60
80212;DHT22;70434;37.956;23.722;2023-08-31T14:49:21;35.20;32.00
80212;DHT22;70434;37.956;23.722;2023-08-31T14:51:47;35.20;32.40
80212;DHT22;70434;37.956;23.722;2023-08-31T14:54:13;35.10;32.80
80212;DHT22;70434;37.956;23.722;2023-08-31T14:56:39;35.00;32.70
80212;DHT22;70434;37.956;23.722;2023-08-31T14:59:06;35.00;33.00
80212;DHT22;70434;37.956;23.722;2023-08-31T15:01:32;35.10;32.90
80212;DHT22;70434;37.956;23.722;2023-08-31T15:03:58;35.10;32.90
80212;DHT22;70434;37.956;23.722;2023-08-31T15:06:23;35.10;32.60
80212;DHT22;70434;37.956;23.722;2023-08-31T15:08:49;35.10;31.60
80212;DHT22;70434;37.956;23.722;2023-08-31T15:11:15;35.10;31.20
80212;DHT22;70434;37.956;23.722;2023-08-31T15:13:41;35.10;30.70
80212;DHT22;70434;37.956;23.722;2023-08-31T15:16:07;35.10;30.50
80212;DHT22;70434;37.956;23.722;2023-08-31T15:18:33;35.10;30.90
80212;DHT22;70434;37.956;23.722;2023-08-31T15:20:58;35.00;30.90
80212;DHT22;70434;37.956;23.722;2023-08-31T15:23:24;35.00;30.00
80212;DHT22;70434;37.956;23.722;2023-08-31T15:25:50;35.10;30.20
80212;DHT22;70434;37.956;23.722;2023-08-31T15:28:16;35.10;31.30
80212;DHT22;70434;37.956;23.722;2023-08-31T15:30:42;35.00;30.30
80212;DHT22;70434;37.956;23.722;2023-08-31T15:33:08;34.90;31.20
80212;DHT22;70434;37.956;23.722;2023-08-31T15:35:34;34.80;32.00
80212;DHT22;70434;37.956;23.722;2023-08-31T15:38:00;34.70;32.40
80212;DHT22;70434;37.956;23.722;2023-08-31T15:40:26;34.60;32.40
80212;DHT22;70434;37.956;23.722;2023-08-31T15:42:52;34.60;32.50
80212;DHT22;70434;37.956;23.722;2023-08-31T15:45:18;34.40;32.30
80212;DHT22;70434;37.956;23.722;2023-08-31T15:47:44;34.20;32.20
80212;DHT22;70434;37.956;23.722;2023-08-31T15:50:10;34.00;30.40
80212;DHT22;70434;37.956;23.722;2023-08-31T15:52:35;33.80;31.90
80212;DHT22;70434;37.956;23.722;2023-08-31T15:55:02;33.60;32.60
80212;DHT22;70434;37.956;23.722;2023-08-31T15:57:29;33.40;32.80
80212;DHT22;70434;37.956;23.722;2023-08-31T15:59:58;33.30;33.80
80212;DHT22;70434;37.956;23.722;2023-08-31T16:02:24;33.10;33.70
80212;DHT22;70434;37.956;23.722;2023-08-31T16:04:52;32.90;33.60
80212;DHT22;70434;37.956;23.722;2023-08-31T16:07:17;32.90;33.50
80212;DHT22;70434;37.956;23.722;2023-08-31T16:09:43;32.80;33.70
80212;DHT22;70434;37.956;23.722;2023-08-31T16:12:09;32.70;33.80
80212;DHT22;70434;37.956;23.722;2023-08-31T16:14:35;32.50;33.90
80212;DHT22;70434;37.956;23.722;2023-08-31T16:17:01;32.40;33.40
80212;DHT22;70434;37.956;23.722;2023-08-31T16:19:27;32.50;33.80
80212;DHT22;70434;37.956;23.722;2023-08-31T16:21:53;32.40;34.00
80212;DHT22;70434;37.956;23.722;2023-08-31T16:24:19;32.40;34.20
80212;DHT22;70434;37.956;23.722;2023-08-31T16:26:44;32.20;33.90
80212;DHT22;70434;37.956;23.722;2023-08-31T16:29:10;32.10;33.60
80212;DHT22;70434;37.956;23.722;2023-08-31T16:31:36;32.00;33.20
80212;DHT22;70434;37.956;23.722;2023-08-31T16:34:02;31.90;32.30
80212;DHT22;70434;37.956;23.722;2023-08-31T16:36:27;31.90;32.00
80212;DHT22;70434;37.956;23.722;2023-08-31T16:38:53;31.80;32.00
80212;DHT22;70434;37.956;23.722;2023-08-31T16:41:20;31.80;32.10
80212;DHT22;70434;37.956;23.722;2023-08-31T16:43:45;31.70;32.70
80212;DHT22;70434;37.956;23.722;2023-08-31T16:46:11;31.70;32.80
80212;DHT22;70434;37.956;23.722;2023-08-31T16:48:37;31.60;33.00
80212;DHT22;70434;37.956;23.722;2023-08-31T16:51:03;31.60;32.80
80212;DHT22;70434;37.956;23.722;2023-08-31T16:53:28;31.60;32.10
80212;DHT22;70434;37.956;23.722;2023-08-31T16:55:54;31.50;32.80
80212;DHT22;70434;37.956;23.722;2023-08-31T16:58:20;31.40;31.90
80212;DHT22;70434;37.956;23.722;2023-08-31T17:00:46;31.30;31.70
80212;DHT22;70434;37.956;23.722;2023-08-31T17:03:12;31.20;31.10
80212;DHT22;70434;37.956;23.722;2023-08-31T17:05:37;31.20;31.80
80212;DHT22;70434;37.956;23.722;2023-08-31T17:08:03;31.20;32.20
80212;DHT22;70434;37.956;23.722;2023-08-31T17:10:29;31.20;32.20
80212;DHT22;70434;37.956;23.722;2023-08-31T17:12:56;31.20;32.70
80212;DHT22;70434;37.956;23.722;2023-08-31T17:15:21;31.20;33.30
80212;DHT22;70434;37.956;23.722;2023-08-31T17:17:47;31.20;33.40
80212;DHT22;70434;37.956;23.722;2023-08-31T17:20:13;31.20;33.50
80212;DHT22;70434;37.956;23.722;2023-08-31T17:22:43;31.20;33.80
80212;DHT22;70434;37.956;23.722;2023-08-31T17:25:09;31.20;34.30
80212;DHT22;70434;37.956;23.722;2023-08-31T17:27:35;31.20;34.70
80212;DHT22;70434;37.956;23.722;2023-08-31T17:30:01;31.10;35.10
80212;DHT22;70434;37.956;23.722;2023-08-31T17:32:32;31.10;35.60
80212;DHT22;70434;37.956;23.722;2023-08-31T17:34:58;31.10;36.20
80212;DHT22;70434;37.956;23.722;2023-08-31T17:37:24;30.90;36.60
80212;DHT22;70434;37.956;23.722;2023-08-31T17:39:50;30.80;36.50
80212;DHT22;70434;37.956;23.722;2023-08-31T17:42:17;30.80;36.70
80212;DHT22;70434;37.956;23.722;2023-08-31T17:44:43;30.80;36.40
80212;DHT22;70434;37.956;23.722;2023-08-31T17:47:10;30.80;36.90
80212;DHT22;70434;37.956;23.722;2023-08-31T17:49:36;30.80;37.30
80212;DHT22;70434;37.956;23.722;2023-08-31T17:52:02;30.90;37.50
80212;DHT22;70434;37.956;23.722;2023-08-31T17:54:28;30.80;37.50
80212;DHT22;70434;37.956;23.722;2023-08-31T17:56:53;30.80;37.70
80212;DHT22;70434;37.956;23.722;2023-08-31T17:59:19;30.70;37.60
80212;DHT22;70434;37.956;23.722;2023-08-31T18:01:45;30.70;36.60
80212;DHT22;70434;37.956;23.722;2023-08-31T18:04:11;30.70;36.00
80212;DHT22;70434;37.956;23.722;2023-08-31T18:06:39;30.70;35.20
80212;DHT22;70434;37.956;23.722;2023-08-31T18:09:05;30.70;34.70
80212;DHT22;70434;37.956;23.722;2023-08-31T18:11:32;30.70;32.80
80212;DHT22;70434;37.956;23.722;2023-08-31T18:13:58;30.70;31.80
80212;DHT22;70434;37.956;23.722;2023-08-31T18:16:23;30.70;32.80
80212;DHT22;70434;37.956;23.722;2023-08-31T18:18:49;30.70;32.20
80212;DHT22;70434;37.956;23.722;2023-08-31T18:21:15;30.60;32.30
80212;DHT22;70434;37.956;23.722;2023-08-31T18:23:40;30.60;32.30
80212;DHT22;70434;37.956;23.722;2023-08-31T18:26:06;30.50;31.60
80212;DHT22;70434;37.956;23.722;2023-08-31T18:28:32;30.50;31.00
80212;DHT22;70434;37.956;23.722;2023-08-31T18:30:59;30.30;30.90
80212;DHT22;70434;37.956;23.722;2023-08-31T18:33:29;30.20;30.80
80212;DHT22;70434;37.956;23.722;2023-08-31T18:35:57;30.10;31.70
80212;DHT22;70434;37.956;23.722;2023-08-31T18:38:25;30.10;32.70
80212;DHT22;70434;37.956;23.722;2023-08-31T18:40:54;30.10;32.90
80212;DHT22;70434;37.956;23.722;2023-08-31T18:43:20;30.10;33.40
80212;DHT22;70434;37.956;23.722;2023-08-31T18:45:47;30.20;33.60
80212;DHT22;70434;37.956;23.722;2023-08-31T18:48:14;30.20;33.80
80212;DHT22;70434;37.956;23.722;2023-08-31T18:50:41;30.20;34.10
80212;DHT22;70434;37.956;23.722;2023-08-31T18:53:07;30.10;34.70
80212;DHT22;70434;37.956;23.722;2023-08-31T18:55:36;30.10;34.90
80212;DHT22;70434;37.956;23.722;2023-08-31T18:58:04;29.90;34.10
80212;DHT22;70434;37.956;23.722;2023-08-31T19:00:30;29.90;34.70
80212;DHT22;70434;37.956;23.722;2023-08-31T19:02:56;29.90;35.10
80212;DHT22;70434;37.956;23.722;2023-08-31T19:05:22;29.90;35.40
80212;DHT22;70434;37.956;23.722;2023-08-31T19:07:51;29.80;35.60
80212;DHT22;70434;37.956;23.722;2023-08-31T19:10:18;29.90;36.30
80212;DHT22;70434;37.956;23.722;2023-08-31T19:12:44;29.90;35.30
80212;DHT22;70434;37.956;23.722;2023-08-31T19:15:13;29.80;35.70
80212;DHT22;70434;37.956;23.722;2023-08-31T19:17:39;29.90;35.70
80212;DHT22;70434;37.956;23.722;2023-08-31T19:20:05;29.80;35.60
80212;DHT22;70434;37.956;23.722;2023-08-31T19:22:34;29.70;35.20
80212;DHT22;70434;37.956;23.722;2023-08-31T19:25:00;29.60;36.00
80212;DHT22;70434;37.956;23.722;2023-08-31T19:27:26;29.50;35.90
80212;DHT22;70434;37.956;23.722;2023-08-31T19:29:53;29.30;37.00
80212;DHT22;70434;37.956;23.722;2023-08-31T19:32:18;29.20;38.70
80212;DHT22;70434;37.956;23.722;2023-08-31T19:34:44;29.20;37.50
80212;DHT22;70434;37.956;23.722;2023-08-31T19:37:10;29.30;37.30
80212;DHT22;70434;37.956;23.722;2023-08-31T19:39:36;29.20;36.00
80212;DHT22;70434;37.956;23.722;2023-08-31T19:42:01;29.10;35.50
80212;DHT22;70434;37.956;23.722;2023-08-31T19:44:27;29.10;35.40
80212;DHT22;70434;37.956;23.722;2023-08-31T19:46:53;29.00;35.60
80212;DHT22;70434;37.956;23.722;2023-08-31T19:49:19;29.00;35.80
80212;DHT22;70434;37.956;23.722;2023-08-31T19:51:44;29.10;35.80
80212;DHT22;70434;37.956;23.722;2023-08-31T19:54:10;29.10;35.60
80212;DHT22;70434;37.956;23.722;2023-08-31T19:56:39;29.10;35.50
80212;DHT22;70434;37.956;23.722;2023-08-31T19:59:05;29.20;35.20
80212;DHT22;70434;37.956;23.722;2023-08-31T20:01:37;29.20;35.00
80212;DHT22;70434;37.956;23.722;2023-08-31T20:04:08;29.30;35.00
80212;DHT22;70434;37.956;23.722;2023-08-31T20:06:33;29.30;34.80
80212;DHT22;70434;37.956;23.722;2023-08-31T20:08:59;29.50;34.60
80212;DHT22;70434;37.956;23.722;2023-08-31T20:11:25;29.50;34.50
80212;DHT22;70434;37.956;23.722;2023-08-31T20:13:51;29.50;34.60
80212;DHT22;70434;37.956;23.722;2023-08-31T20:16:21;29.50;34.70
80212;DHT22;70434;37.956;23.722;2023-08-31T20:18:47;29.40;34.80
80212;DHT22;70434;37.956;23.722;2023-08-31T20:21:13;29.40;35.10
80212;DHT22;70434;37.956;23.722;2023-08-31T20:23:41;29.40;35.30
80212;DHT22;70434;37.956;23.722;2023-08-31T20:26:07;29.40;35.50
80212;DHT22;70434;37.956;23.722;2023-08-31T20:28:34;29.30;35.70
80212;DHT22;70434;37.956;23.722;2023-08-31T20:31:00;29.30;35.90
80212;DHT22;70434;37.956;23.722;2023-08-31T20:33:26;29.20;36.20
80212;DHT22;70434;37.956;23.722;2023-08-31T20:36:06;29.30;36.20
80212;DHT22;70434;37.956;23.722;2023-08-31T20:38:34;29.40;36.20
80212;DHT22;70434;37.956;23.722;2023-08-31T20:41:01;29.40;36.50
80212;DHT22;70434;37.956;23.722;2023-08-31T20:43:27;29.40;36.50
80212;DHT22;70434;37.956;23.722;2023-08-31T20:45:52;29.40;36.60
80212;DHT22;70434;37.956;23.722;2023-08-31T20:48:18;29.50;36.70
80212;DHT22;70434;37.956;23.722;2023-08-31T20:50:44;29.40;36.60
80212;DHT22;70434;37.956;23.722;2023-08-31T20:53:10;29.40;36.70
80212;DHT22;70434;37.956;23.722;2023-08-31T20:55:36;29.50;36.70
80212;DHT22;70434;37.956;23.722;2023-08-31T20:58:02;29.50;36.70
80212;DHT22;70434;37.956;23.722;2023-08-31T21:00:28;29.50;36.90
80212;DHT22;70434;37.956;23.722;2023-08-31T21:02:54;29.50;36.70
80212;DHT22;70434;37.956;23.722;2023-08-31T21:05:20;29.50;36.60
80212;DHT22;70434;37.956;23.722;2023-08-31T21:07:45;29.40;36.80
80212;DHT22;70434;37.956;23.722;2023-08-31T21:10:11;29.40;36.70
80212;DHT22;70434;37.956;23.722;2023-08-31T21:12:37;29.40;36.80
80212;DHT22;70434;37.956;23.722;2023-08-31T21:15:03;29.50;36.90
80212;DHT22;70434;37.956;23.722;2023-08-31T21:17:29;29.50;36.90
80212;DHT22;70434;37.956;23.722;2023-08-31T21:19:55;29.60;36.80
80212;DHT22;70434;37.956;23.722;2023-08-31T21:22:20;29.60;37.00
80212;DHT22;70434;37.956;23.722;2023-08-31T21:24:46;29.60;37.20
80212;DHT22;70434;37.956;23.722;2023-08-31T21:27:12;29.50;37.10
80212;DHT22;70434;37.956;23.722;2023-08-31T21:29:37;29.60;37.30
80212;DHT22;70434;37.956;23.722;2023-08-31T21:32:03;29.60;37.20
80212;DHT22;70434;37.956;23.722;2023-08-31T21:34:29;29.70;36.90
80212;DHT22;70434;37.956;23.722;2023-08-31T21:36:55;29.80;37.00
80212;DHT22;70434;37.956;23.722;2023-08-31T21:39:21;29.80;36.80
80212;DHT22;70434;37.956;23.722;2023-08-31T21:41:46;29.80;36.80
80212;DHT22;70434;37.956;23.722;2023-08-31T21:44:12;29.80;36.70
80212;DHT22;70434;37.956;23.722;2023-08-31T21:46:38;29.80;36.60
80212;DHT22;70434;37.956;23.722;2023-08-31T21:49:04;29.70;36.60
80212;DHT22;70434;37.956;23.722;2023-08-31T21:51:29;29.70;36.40
80212;DHT22;70434;37.956;23.722;2023-08-31T21:53:55;29.60;36.50
80212;DHT22;70434;37.956;23.722;2023-08-31T21:56:22;29.60;36.60
80212;DHT22;70434;37.956;23.722;2023-08-31T21:58:48;29.60;36.70
80212;DHT22;70434;37.956;23.722;2023-08-31T22:01:14;29.60;36.80
80212;DHT22;70434;37.956;23.722;2023-08-31T22:03:40;29.60;36.90
80212;DHT22;70434;37.956;23.722;2023-08-31T22:06:07;29.60;36.90
80212;DHT22;70434;37.956;23.722;2023-08-31T22:08:33;29.60;37.90
80212;DHT22;70434;37.956;23.722;2023-08-31T22:11:04;29.60;36.90
80212;DHT22;70434;37.956;23.722;2023-08-31T22:13:30;29.60;37.50
80212;DHT22;70434;37.956;23.722;2023-08-31T22:15:56;29.60;37.60
80212;DHT22;70434;37.956;23.722;2023-08-31T22:18:22;29.60;37.70
80212;DHT22;70434;37.956;23.722;2023-08-31T22:20:48;29.60;37.80
80212;DHT22;70434;37.956;23.722;2023-08-31T22:23:14;29.60;37.80
80212;DHT22;70434;37.956;23.722;2023-08-31T22:25:40;29.60;37.90
80212;DHT22;70434;37.956;23.722;2023-08-31T22:28:06;29.50;37.90
80212;DHT22;70434;37.956;23.722;2023-08-31T22:30:31;29.50;38.00
80212;DHT22;70434;37.956;23.722;2023-08-31T22:32:58;29.50;38.20
80212;DHT22;70434;37.956;23.722;2023-08-31T22:35:23;29.50;38.20
80212;DHT22;70434;37.956;23.722;2023-08-31T22:37:49;29.50;38.10
80212;DHT22;70434;37.956;23.722;2023-08-31T22:40:15;29.50;38.00
80212;DHT22;70434;37.956;23.722;2023-08-31T22:42:41;29.50;38.10
80212;DHT22;70434;37.956;23.722;2023-08-31T22:45:10;29.50;38.10
80212;DHT22;70434;37.956;23.722;2023-08-31T22:47:36;29.50;38.10
80212;DHT22;70434;37.956;23.722;2023-08-31T22:50:03;29.50;37.90
80212;DHT22;70434;37.956;23.722;2023-08-31T22:52:30;29.50;39.00
80212;DHT22;70434;37.956;23.722;2023-08-31T22:54:57;29.40;38.20
80212;DHT22;70434;37.956;23.722;2023-08-31T22:57:23;29.40;38.40
80212;DHT22;70434;37.956;23.722;2023-08-31T22:59:52;29.40;38.50
80212;DHT22;70434;37.956;23.722;2023-08-31T23:02:18;29.40;38.60
80212;DHT22;70434;37.956;23.722;2023-08-31T23:04:44;29.40;38.60
80212;DHT22;70434;37.956;23.722;2023-08-31T23:07:11;29.30;38.70
80212;DHT22;70434;37.956;23.722;2023-08-31T23:09:37;29.30;39.00
80212;DHT22;70434;37.956;23.722;2023-08-31T23:12:06;29.30;39.10
80212;DHT22;70434;37.956;23.722;2023-08-31T23:14:32;29.30;39.20
80212;DHT22;70434;37.956;23.722;2023-08-31T23:16:58;29.20;39.10
80212;DHT22;70434;37.956;23.722;2023-08-31T23:19:24;29.20;39.20
80212;DHT22;70434;37.956;23.722;2023-08-31T23:21:50;29.20;39.20
80212;DHT22;70434;37.956;23.722;2023-08-31T23:24:17;29.20;39.20
80212;DHT22;70434;37.956;23.722;2023-08-31T23:26:42;29.20;39.10
80212;DHT22;70434;37.956;23.722;2023-08-31T23:29:08;29.20;39.10
80212;DHT22;70434;37.956;23.722;2023-08-31T23:31:34;29.30;39.00
80212;DHT22;70434;37.956;23.722;2023-08-31T23:34:00;29.30;38.90
80212;DHT22;70434;37.956;23.722;2023-08-31T23:36:27;29.30;38.80
80212;DHT22;70434;37.956;23.722;2023-08-31T23:38:53;29.30;38.70
80212;DHT22;70434;37.956;23.722;2023-08-31T23:41:19;29.40;38.80
80212;DHT22;70434;37.956;23.722;2023-08-31T23:43:46;29.40;38.50
80212;DHT22;70434;37.956;23.722;2023-08-31T23:46:12;29.40;38.50
80212;DHT22;70434;37.956;23.722;2023-08-31T23:48:38;29.40;38.40
80212;DHT22;70434;37.956;23.722;2023-08-31T23:51:03;29.40;38.70
80212;DHT22;70434;37.956;23.722;2023-08-31T23:53:29;29.30;38.90
80212;DHT22;70434;37.956;23.722;2023-08-31T23:55:55;29.30;38.80
80212;DHT22;70434;37.956;23.722;2023-08-31T23:58:23;29.30;38.40
